Time;durP1;ratioP1;P1;durP2;ratioP2;P2;SDS_P1;SDS_P2;PMS_P1;PMS_P2;Temp;Humidity;BMP_temperature;BMP_pressure;BME280_temperature;BME280_humidity;BME280_pressure;Samples;Min_cycle;Max_cycle;Signal;HPM_P1;HPM_P2
2023/06/24 00:02:09;;;;;;;10.93;10.03;;;16.00;99.90;;;;;;5026991;28;20244;-78
2023/06/24 00:04:36;;;;;;;10.40;9.43;;;15.90;99.90;;;;;;5018047;28;20687;-79
2023/06/24 00:07:03;;;;;;;8.80;7.53;;;15.90;99.90;;;;;;5024772;28;20675;-79
2023/06/24 00:09:31;;;;;;;11.17;10.13;;;15.80;99.90;;;;;;5029108;28;20264;-78
2023/06/24 00:11:59;;;;;;;12.10;8.60;;;15.70;99.90;;;;;;5027530;28;20232;-79
2023/06/24 00:14:27;;;;;;;10.57;9.57;;;15.70;99.90;;;;;;5030636;28;20204;-78
2023/06/24 00:16:54;;;;;;;9.60;8.60;;;15.70;99.90;;;;;;5030291;28;20267;-80
2023/06/24 00:19:22;;;;;;;13.27;12.07;;;15.60;99.90;;;;;;5026347;28;20242;-78
2023/06/24 00:21:51;;;;;;;11.90;10.90;;;15.60;99.90;;;;;;5024417;28;20708;-78
2023/06/24 00:24:19;;;;;;;11.53;10.53;;;15.60;99.90;;;;;;5015969;28;20202;-78
2023/06/24 00:26:47;;;;;;;11.60;10.50;;;15.60;99.90;;;;;;5024798;28;20247;-78
2023/06/24 00:29:14;;;;;;;11.47;10.43;;;15.60;99.90;;;;;;5028525;28;20202;-78
2023/06/24 00:31:42;;;;;;;13.07;11.97;;;15.60;99.90;;;;;;5018754;28;20247;-80
2023/06/24 00:34:09;;;;;;;12.53;11.33;;;15.50;99.90;;;;;;5015424;28;20674;-79
2023/06/24 00:36:37;;;;;;;11.20;10.20;;;15.50;99.90;;;;;;5029953;28;20203;-78
2023/06/24 00:39:05;;;;;;;11.63;10.63;;;15.40;99.90;;;;;;5025255;28;20681;-79
2023/06/24 00:41:32;;;;;;;11.57;10.37;;;15.40;99.90;;;;;;5029548;28;20589;-78
2023/06/24 00:44:01;;;;;;;13.67;10.43;;;15.40;99.90;;;;;;5032222;28;20829;-80
2023/06/24 00:46:31;;;;;;;12.07;10.97;;;15.30;99.90;;;;;;5028647;28;20203;-79
2023/06/24 00:49:00;;;;;;;13.73;12.07;;;15.30;99.90;;;;;;5031633;28;20215;-78
2023/06/24 00:51:30;;;;;;;11.43;10.33;;;15.30;99.90;;;;;;5019345;28;20235;-79
2023/06/24 00:53:57;;;;;;;9.83;8.43;;;15.30;99.90;;;;;;5020247;28;20242;-78
2023/06/24 00:56:29;;;;;;;10.13;8.73;;;15.30;99.90;;;;;;5031470;28;20685;-78
2023/06/24 00:58:57;;;;;;;9.37;7.80;;;15.20;99.90;;;;;;5027662;28;20205;-78
2023/06/24 01:01:26;;;;;;;9.77;8.63;;;15.20;99.90;;;;;;5031374;28;20217;-80
2023/06/24 01:03:53;;;;;;;11.33;10.07;;;15.10;99.90;;;;;;5027133;28;20233;-78
2023/06/24 01:06:20;;;;;;;10.67;9.67;;;15.10;99.90;;;;;;5029947;28;20196;-78
2023/06/24 01:08:50;;;;;;;12.70;11.50;;;15.10;99.90;;;;;;5032262;28;20206;-78
2023/06/24 01:11:17;;;;;;;11.77;10.77;;;15.20;99.90;;;;;;5030569;28;20223;-78
2023/06/24 01:13:44;;;;;;;12.33;11.03;;;15.10;99.90;;;;;;5030789;28;20207;-78
2023/06/24 01:16:18;;;;;;;8.50;7.47;;;15.10;99.90;;;;;;5029098;28;20269;-78
2023/06/24 01:18:54;;;;;;;12.13;11.03;;;15.10;99.90;;;;;;5028523;28;20269;-78
2023/06/24 01:21:32;;;;;;;10.80;9.70;;;15.10;99.90;;;;;;5047780;28;20275;-78
2023/06/24 01:24:22;;;;;;;9.70;8.80;;;15.20;99.90;;;;;;5028540;28;20302;-79
2023/06/24 01:27:29;;;;;;;10.23;9.23;;;15.00;99.90;;;;;;5029283;28;20704;-78
2023/06/24 01:30:16;;;;;;;11.83;10.83;;;15.00;99.90;;;;;;5025181;28;20742;-78
2023/06/24 01:32:50;;;;;;;9.87;8.87;;;14.90;99.90;;;;;;5019611;28;20709;-78
2023/06/24 01:35:24;;;;;;;10.17;9.23;;;14.90;99.90;;;;;;5010078;28;20286;-78
2023/06/24 01:37:53;;;;;;;9.73;8.73;;;14.90;99.90;;;;;;5032653;28;20249;-79
2023/06/24 01:40:26;;;;;;;13.17;9.07;;;14.90;99.90;;;;;;5028659;28;20211;-78
2023/06/24 01:42:54;;;;;;;10.47;9.47;;;14.80;99.90;;;;;;5033443;28;20191;-78
2023/06/24 01:45:25;;;;;;;8.97;8.07;;;14.80;99.90;;;;;;5029817;28;20203;-79
2023/06/24 01:48:00;;;;;;;8.43;7.63;;;14.70;99.90;;;;;;5029272;28;20696;-78
2023/06/24 01:50:27;;;;;;;9.93;7.73;;;14.70;99.90;;;;;;5028095;28;20623;-79
2023/06/24 01:52:55;;;;;;;9.63;8.30;;;14.70;99.90;;;;;;5022334;28;20223;-78
2023/06/24 01:55:24;;;;;;;8.13;7.30;;;14.70;99.90;;;;;;5029001;28;20719;-78
2023/06/24 01:57:52;;;;;;;8.73;7.53;;;14.70;99.90;;;;;;5029085;28;20242;-78
2023/06/24 02:00:20;;;;;;;8.70;7.80;;;14.70;99.90;;;;;;5033014;28;20211;-78
2023/06/24 02:02:51;;;;;;;9.13;7.90;;;14.70;99.90;;;;;;5016344;28;20209;-79
2023/06/24 02:05:21;;;;;;;9.17;7.70;;;14.60;99.90;;;;;;5014173;28;20206;-78
2023/06/24 02:07:51;;;;;;;9.00;7.30;;;14.60;99.90;;;;;;5022085;28;20697;-78
2023/06/24 02:10:19;;;;;;;8.40;7.60;;;14.50;99.90;;;;;;5031260;28;20206;-78
2023/06/24 02:12:49;;;;;;;9.00;8.13;;;14.50;99.90;;;;;;5030234;28;20714;-78
2023/06/24 02:15:17;;;;;;;8.57;7.77;;;14.40;99.90;;;;;;5018617;28;20192;-78
2023/06/24 02:17:44;;;;;;;8.53;7.63;;;14.40;99.90;;;;;;5028299;28;20200;-78
2023/06/24 02:20:13;;;;;;;9.20;8.10;;;14.30;99.90;;;;;;5015609;28;20199;-78
2023/06/24 02:22:41;;;;;;;9.73;8.50;;;14.40;99.90;;;;;;5029608;28;20226;-78
2023/06/24 02:25:09;;;;;;;9.13;8.23;;;14.30;99.90;;;;;;5017483;28;20228;-79
2023/06/24 02:27:37;;;;;;;10.93;9.93;;;14.30;99.90;;;;;;5030399;28;20630;-78
2023/06/24 02:30:05;;;;;;;10.97;10.07;;;14.20;99.90;;;;;;5021280;28;20257;-78
2023/06/24 02:32:32;;;;;;;12.03;10.83;;;14.20;99.90;;;;;;5008245;28;20227;-78
2023/06/24 02:34:59;;;;;;;12.17;11.07;;;14.20;99.90;;;;;;5026525;28;20656;-78
2023/06/24 02:37:29;;;;;;;12.90;11.80;;;14.20;99.90;;;;;;5044821;28;20290;-78
2023/06/24 02:39:58;;;;;;;13.47;12.23;;;14.20;99.90;;;;;;5029025;28;20198;-79
2023/06/24 02:42:25;;;;;;;11.77;10.67;;;14.20;99.90;;;;;;5025749;28;20217;-78
2023/06/24 02:44:52;;;;;;;12.20;10.93;;;14.20;99.90;;;;;;5022880;28;20199;-78
2023/06/24 02:47:20;;;;;;;11.53;10.43;;;14.20;99.90;;;;;;5005970;28;20725;-78
2023/06/24 02:49:50;;;;;;;12.07;10.87;;;14.20;99.90;;;;;;5025498;28;20249;-78
2023/06/24 02:52:18;;;;;;;11.00;10.00;;;14.20;99.90;;;;;;5024187;28;20225;-78
2023/06/24 02:54:45;;;;;;;13.13;11.80;;;14.20;99.90;;;;;;5025204;28;20208;-78
2023/06/24 02:57:30;;;;;;;9.13;8.00;;;14.20;99.90;;;;;;5014883;28;20208;-79
2023/06/24 03:00:21;;;;;;;12.30;11.37;;;14.20;99.90;;;;;;5023279;28;20219;-78
2023/06/24 03:03:07;;;;;;;11.87;10.87;;;14.10;99.90;;;;;;5028825;28;20574;-78
2023/06/24 03:05:37;;;;;;;11.50;10.60;;;14.10;99.90;;;;;;5020412;28;20197;-78
2023/06/24 03:08:23;;;;;;;11.57;10.60;;;14.10;99.90;;;;;;5010121;28;20569;-79
2023/06/24 03:10:52;;;;;;;8.07;7.27;;;14.00;99.90;;;;;;5032684;28;20289;-79
2023/06/24 03:13:23;;;;;;;7.67;6.77;;;14.00;99.90;;;;;;5009430;28;20658;-81
2023/06/24 03:16:13;;;;;;;7.00;6.30;;;14.00;99.90;;;;;;5012589;28;20742;-81
2023/06/24 03:18:48;;;;;;;7.80;6.50;;;14.10;99.90;;;;;;5008499;28;20196;-82
2023/06/24 03:21:15;;;;;;;7.83;6.47;;;14.00;99.90;;;;;;5008134;28;20214;-80
2023/06/24 03:23:42;;;;;;;9.03;7.17;;;14.00;99.90;;;;;;5008188;28;20321;-81
2023/06/24 03:26:12;;;;;;;8.20;7.13;;;14.00;99.90;;;;;;5009452;28;20196;-82
2023/06/24 03:28:40;;;;;;;8.57;6.50;;;14.00;99.90;;;;;;5007992;28;20258;-83
2023/06/24 03:31:16;;;;;;;7.80;7.00;;;14.00;99.90;;;;;;5007243;28;20311;-82
2023/06/24 03:33:44;;;;;;;7.60;6.80;;;14.00;99.90;;;;;;5012922;28;20227;-81
2023/06/24 03:36:13;;;;;;;7.57;6.77;;;13.90;99.90;;;;;;5004159;28;20209;-83
2023/06/24 03:38:41;;;;;;;7.70;6.90;;;13.90;99.90;;;;;;5008421;28;20206;-82
2023/06/24 03:41:08;;;;;;;8.50;7.23;;;13.90;99.90;;;;;;5005535;28;20236;-82
2023/06/24 03:43:35;;;;;;;9.13;6.83;;;14.00;99.90;;;;;;5006592;28;20690;-82
2023/06/24 03:46:03;;;;;;;8.10;6.93;;;14.00;99.90;;;;;;5006796;28;20201;-82
2023/06/24 03:48:29;;;;;;;8.27;7.20;;;14.00;99.90;;;;;;5008876;28;20676;-83
2023/06/24 03:50:57;;;;;;;8.20;7.30;;;14.00;99.90;;;;;;5010009;28;20225;-81
2023/06/24 03:53:24;;;;;;;7.20;6.40;;;14.00;99.90;;;;;;5010578;28;20206;-82
2023/06/24 03:55:51;;;;;;;6.97;6.27;;;14.10;99.90;;;;;;5001201;28;20258;-82
2023/06/24 03:58:20;;;;;;;7.73;6.93;;;14.10;99.90;;;;;;5002355;28;20204;-82
2023/06/24 04:00:49;;;;;;;10.90;10.00;;;14.20;99.90;;;;;;5017712;28;20707;-82
2023/06/24 04:03:18;;;;;;;7.80;7.00;;;14.30;99.90;;;;;;5026368;28;20197;-83
2023/06/24 04:05:44;;;;;;;8.77;6.90;;;14.40;99.90;;;;;;5025274;28;20608;-82
2023/06/24 04:08:11;;;;;;;8.00;7.20;;;14.40;99.90;;;;;;5024191;28;20212;-83
2023/06/24 04:10:39;;;;;;;8.37;7.33;;;14.50;99.90;;;;;;5025643;28;20630;-82
2023/06/24 04:13:06;;;;;;;8.27;7.03;;;14.60;99.90;;;;;;5028024;28;20786;-82
2023/06/24 04:15:33;;;;;;;10.17;9.37;;;14.70;99.90;;;;;;5019784;28;20290;-84
2023/06/24 04:18:00;;;;;;;11.60;10.60;;;14.80;99.90;;;;;;5032170;28;20202;-84
2023/06/24 04:20:28;;;;;;;10.37;9.50;;;14.90;99.90;;;;;;5026888;28;20204;-81
2023/06/24 04:22:55;;;;;;;7.67;6.63;;;15.00;99.90;;;;;;5032609;28;20202;-87
2023/06/24 04:25:22;;;;;;;8.60;6.93;;;15.10;99.90;;;;;;5029937;28;20215;-80
2023/06/24 04:27:49;;;;;;;7.40;6.50;;;15.20;99.90;;;;;;5030744;28;20198;-79
2023/06/24 04:30:16;;;;;;;9.30;8.60;;;15.30;99.90;;;;;;5028248;28;20209;-79
2023/06/24 04:32:43;;;;;;;7.20;6.30;;;15.40;99.90;;;;;;5029406;28;20219;-79
2023/06/24 04:35:10;;;;;;;8.50;7.70;;;15.60;99.90;;;;;;5034282;28;20205;-79
2023/06/24 04:37:39;;;;;;;10.90;10.10;;;15.80;99.90;;;;;;5028104;28;20759;-79
2023/06/24 04:40:08;;;;;;;8.00;7.30;;;16.00;99.90;;;;;;5024916;28;20626;-79
2023/06/24 04:42:35;;;;;;;7.03;6.33;;;16.10;99.90;;;;;;5030404;28;20218;-79
2023/06/24 04:45:05;;;;;;;7.90;7.20;;;16.30;99.90;;;;;;5020674;28;20207;-80
2023/06/24 04:47:32;;;;;;;8.37;7.17;;;16.40;99.90;;;;;;5023484;28;20208;-80
2023/06/24 04:49:58;;;;;;;10.40;9.50;;;16.50;99.90;;;;;;5025203;28;20951;-79
2023/06/24 04:52:25;;;;;;;7.70;6.53;;;16.70;99.90;;;;;;5028377;28;20229;-79
2023/06/24 04:54:53;;;;;;;7.83;7.03;;;16.90;99.90;;;;;;5025231;28;20275;-79
2023/06/24 04:57:28;;;;;;;8.00;7.30;;;17.20;99.90;;;;;;5026994;28;20246;-81
2023/06/24 04:59:55;;;;;;;9.70;8.90;;;17.40;99.90;;;;;;5026577;28;20203;-80
2023/06/24 05:02:25;;;;;;;8.30;7.50;;;17.50;99.90;;;;;;5023198;28;20239;-83
2023/06/24 05:04:53;;;;;;;9.40;8.40;;;17.50;99.90;;;;;;5013775;28;20205;-83
2023/06/24 05:07:23;;;;;;;8.97;8.17;;;17.60;99.90;;;;;;5018683;28;20668;-86
2023/06/24 05:09:51;;;;;;;10.80;9.80;;;17.70;99.90;;;;;;5013082;28;20205;-83
2023/06/24 05:12:19;;;;;;;8.70;7.93;;;17.80;99.90;;;;;;5028567;28;20218;-82
2023/06/24 05:14:51;;;;;;;8.47;7.67;;;18.00;99.90;;;;;;5007905;28;20218;-81
2023/06/24 05:17:21;;;;;;;7.67;6.97;;;18.20;99.90;;;;;;5019334;28;20211;-79
2023/06/24 05:19:50;;;;;;;7.50;6.70;;;18.30;99.90;;;;;;5010363;28;20207;-83
2023/06/24 05:22:17;;;;;;;9.47;8.57;;;18.40;99.90;;;;;;5009593;28;20277;-78
2023/06/24 05:24:44;;;;;;;8.80;7.90;;;18.40;99.90;;;;;;5011745;28;20244;-77
2023/06/24 05:27:11;;;;;;;7.83;7.03;;;18.50;99.90;;;;;;5014052;28;20206;-76
2023/06/24 05:29:39;;;;;;;7.80;7.00;;;18.50;99.90;;;;;;5010897;28;20206;-77
2023/06/24 05:32:06;;;;;;;8.83;7.93;;;18.60;99.90;;;;;;5006311;28;20638;-78
2023/06/24 05:34:33;;;;;;;9.13;8.23;;;18.60;99.90;;;;;;5009959;28;20270;-77
2023/06/24 05:37:00;;;;;;;7.43;6.63;;;18.70;99.90;;;;;;5015342;28;20618;-77
2023/06/24 05:39:27;;;;;;;9.13;8.33;;;18.80;99.90;;;;;;5007395;28;20338;-77
2023/06/24 05:41:54;;;;;;;9.53;8.70;;;19.20;99.90;;;;;;5009187;28;20703;-77
2023/06/24 05:44:22;;;;;;;9.67;8.77;;;19.60;99.90;;;;;;5002800;28;20201;-77
2023/06/24 05:46:50;;;;;;;9.03;8.20;;;20.20;99.90;;;;;;5008986;28;20207;-80
2023/06/24 05:49:17;;;;;;;9.37;7.27;;;20.70;99.90;;;;;;5011957;28;20672;-79
2023/06/24 05:51:44;;;;;;;8.20;7.50;;;21.20;99.90;;;;;;5013402;28;20311;-79
2023/06/24 05:54:11;;;;;;;8.90;8.10;;;21.70;99.90;;;;;;5012349;28;20656;-79
2023/06/24 05:56:39;;;;;;;7.97;5.83;;;22.00;99.90;;;;;;5008339;28;20260;-80
2023/06/24 05:59:06;;;;;;;10.73;7.60;;;22.30;99.90;;;;;;5009444;28;20205;-81
2023/06/24 06:01:33;;;;;;;6.50;5.60;;;22.70;99.90;;;;;;5012285;28;20301;-82
2023/06/24 06:04:14;;;;;;;7.10;6.27;;;23.00;99.90;;;;;;5008995;28;20221;-83
2023/06/24 06:06:58;;;;;;;8.40;7.53;;;23.20;99.90;;;;;;5015295;28;20710;-84
2023/06/24 06:09:26;;;;;;;9.13;8.33;;;23.40;99.90;;;;;;5012486;28;20197;-81
2023/06/24 06:11:55;;;;;;;6.73;5.97;;;23.90;99.90;;;;;;5008254;28;20227;-80
2023/06/24 06:14:27;;;;;;;7.87;7.07;;;24.20;99.90;;;;;;5011071;28;20209;-81
2023/06/24 06:16:55;;;;;;;7.47;6.77;;;24.20;99.90;;;;;;5026683;28;20208;-78
2023/06/24 06:19:24;;;;;;;9.40;8.70;;;24.40;99.90;;;;;;5012496;28;20279;-78
2023/06/24 06:24:38;;;;;;;9.23;8.53;;;24.90;99.90;;;;;;5223401;22;20302;-80
2023/06/24 06:27:10;;;;;;;9.80;8.90;;;24.90;99.90;;;;;;5015372;28;20220;-80
2023/06/24 06:29:39;;;;;;;10.07;9.23;;;24.90;99.90;;;;;;5012151;28;20593;-80
2023/06/24 06:32:10;;;;;;;9.27;8.37;;;25.30;99.90;;;;;;5025822;28;20667;-80
2023/06/24 06:34:49;;;;;;;8.67;7.87;;;25.10;99.90;;;;;;5033311;28;20769;-80
2023/06/24 06:37:18;;;;;;;9.27;8.47;;;25.10;99.90;;;;;;5022087;28;20208;-81
2023/06/24 06:39:45;;;;;;;8.27;7.47;;;25.10;99.90;;;;;;5029392;28;20214;-80
2023/06/24 06:42:17;;;;;;;8.07;7.30;;;25.20;99.90;;;;;;5020633;28;20216;-81
2023/06/24 06:44:49;;;;;;;7.90;7.10;;;25.20;99.90;;;;;;5018934;28;20196;-80
2023/06/24 06:47:16;;;;;;;8.47;7.67;;;25.60;99.90;;;;;;5025103;28;20195;-80
2023/06/24 06:49:48;;;;;;;8.10;7.40;;;25.90;99.90;;;;;;5024753;28;20738;-80
2023/06/24 06:52:28;;;;;;;7.70;7.10;;;26.10;99.90;;;;;;5023737;28;20226;-80
2023/06/24 06:55:00;;;;;;;7.67;6.83;;;25.90;99.90;;;;;;5026909;28;20199;-80
2023/06/24 07:01:14;;;;;;;7.83;7.13;;;26.00;99.90;;;;;;5023977;28;20258;-79
2023/06/24 07:06:33;;;;;;;7.80;7.10;;;26.70;99.90;;;;;;5008930;28;20203;-81
2023/06/24 07:09:09;;;;;;;7.70;7.00;;;27.10;99.90;;;;;;5015472;28;20236;-79
2023/06/24 07:11:44;;;;;;;8.00;7.40;;;27.00;99.90;;;;;;5031905;28;20220;-81
2023/06/24 07:14:11;;;;;;;8.27;7.43;;;26.50;99.90;;;;;;5031354;28;20258;-80
2023/06/24 07:16:38;;;;;;;7.13;6.53;;;26.60;99.90;;;;;;5026920;28;20204;-83
2023/06/24 07:19:09;;;;;;;7.67;6.97;;;26.60;99.90;;;;;;5023293;28;20627;-81
2023/06/24 07:21:44;;;;;;;7.10;6.53;;;26.80;99.90;;;;;;5022773;28;20222;-81
2023/06/24 07:24:11;;;;;;;8.17;7.47;;;27.30;99.90;;;;;;5032557;28;20230;-79
2023/06/24 07:26:38;;;;;;;8.10;7.50;;;27.40;99.90;;;;;;5024184;28;20200;-78
2023/06/24 07:29:07;;;;;;;8.20;7.50;;;27.50;99.90;;;;;;5016548;28;20200;-78
2023/06/24 07:31:34;;;;;;;8.10;7.40;;;27.90;99.90;;;;;;5041223;28;20310;-79
2023/06/24 07:34:01;;;;;;;7.90;7.30;;;28.30;99.90;;;;;;5024417;28;20727;-80
2023/06/24 07:36:28;;;;;;;8.47;7.60;;;28.20;99.90;;;;;;5019459;28;20204;-78
2023/06/24 07:38:56;;;;;;;9.03;8.13;;;28.50;99.90;;;;;;5026798;28;20615;-81
2023/06/24 07:41:23;;;;;;;8.40;7.60;;;28.70;99.90;;;;;;5019031;28;20599;-80
2023/06/24 07:43:50;;;;;;;8.50;7.73;;;28.50;99.90;;;;;;5027102;28;20192;-83
2023/06/24 07:46:17;;;;;;;6.57;6.07;;;28.10;99.90;;;;;;5015937;28;20196;-82
2023/06/24 07:48:44;;;;;;;8.07;7.27;;;28.70;99.90;;;;;;5013928;28;20204;-83
2023/06/24 07:51:13;;;;;;;8.53;7.73;;;28.80;99.90;;;;;;5019985;28;20212;-82
2023/06/24 07:53:40;;;;;;;7.10;6.60;;;29.10;99.90;;;;;;5031885;28;20338;-82
2023/06/24 07:56:08;;;;;;;7.43;6.53;;;29.10;99.90;;;;;;5023040;28;20199;-82
2023/06/24 07:58:37;;;;;;;6.60;6.10;;;29.30;99.90;;;;;;5023782;28;20682;-83
2023/06/24 08:01:04;;;;;;;7.83;7.23;;;29.40;99.90;;;;;;5031569;28;20233;-81
2023/06/24 08:03:33;;;;;;;7.60;7.00;;;29.30;99.90;;;;;;5032093;28;20222;-81
2023/06/24 08:06:00;;;;;;;7.40;6.80;;;29.60;99.90;;;;;;5024909;28;20192;-82
2023/06/24 08:08:35;;;;;;;6.37;5.87;;;29.20;99.90;;;;;;5033207;28;20195;-81
2023/06/24 08:11:03;;;;;;;6.43;5.93;;;29.40;99.90;;;;;;5032810;28;20207;-82
2023/06/24 08:13:31;;;;;;;6.70;6.20;;;29.30;99.90;;;;;;5027593;28;20204;-82
2023/06/24 08:15:58;;;;;;;7.40;6.80;;;29.50;99.90;;;;;;5031644;28;20188;-82
2023/06/24 08:18:24;;;;;;;7.07;6.43;;;29.30;99.90;;;;;;5030625;28;20230;-82
2023/06/24 08:20:51;;;;;;;7.13;6.53;;;29.10;99.90;;;;;;5026624;28;20219;-81
2023/06/24 08:23:18;;;;;;;8.63;7.70;;;29.00;99.90;;;;;;5020286;28;20617;-85
2023/06/24 08:26:07;;;;;;;7.50;6.80;;;28.90;99.90;;;;;;5031759;28;20194;-82
2023/06/24 08:28:36;;;;;;;6.03;5.53;;;29.10;99.90;;;;;;5021722;28;20201;-81
2023/06/24 08:31:03;;;;;;;7.73;7.00;;;29.40;99.90;;;;;;5023069;28;20215;-80
2023/06/24 08:33:41;;;;;;;6.23;5.53;;;29.30;99.90;;;;;;5025324;28;20241;-82
2023/06/24 08:36:30;;;;;;;9.30;7.23;;;29.60;99.90;;;;;;5026021;28;20208;-80
2023/06/24 08:38:58;;;;;;;7.33;6.77;;;29.40;99.90;;;;;;5021903;28;20246;-79
2023/06/24 08:41:26;;;;;;;7.27;6.67;;;29.70;99.90;;;;;;5034371;28;20251;-80
2023/06/24 08:43:55;;;;;;;6.40;5.80;;;29.80;98.60;;;;;;5024265;28;20287;-81
2023/06/24 08:46:25;;;;;;;7.70;7.00;;;29.60;99.90;;;;;;5030301;28;20671;-82
2023/06/24 08:49:00;;;;;;;7.87;7.13;;;29.50;99.20;;;;;;5025694;28;20686;-82
2023/06/24 08:51:30;;;;;;;8.13;7.43;;;29.30;99.20;;;;;;5016852;28;20219;-81
2023/06/24 08:53:59;;;;;;;6.67;6.07;;;29.00;99.90;;;;;;5019995;28;20221;-79
2023/06/24 08:56:26;;;;;;;6.57;6.07;;;29.10;99.90;;;;;;5027354;28;20203;-79
2023/06/24 08:58:54;;;;;;;6.23;5.70;;;29.30;99.90;;;;;;5026052;28;20220;-79
2023/06/24 09:01:26;;;;;;;6.50;6.00;;;29.00;99.30;;;;;;5023128;28;20223;-78
2023/06/24 09:03:53;;;;;;;6.60;6.07;;;29.30;99.40;;;;;;5044631;28;20204;-79
2023/06/24 09:06:20;;;;;;;7.40;6.77;;;29.80;99.90;;;;;;5026032;28;20249;-77
2023/06/24 09:08:54;;;;;;;6.30;5.70;;;30.10;98.80;;;;;;5033129;28;20270;-78
2023/06/24 09:11:24;;;;;;;6.17;5.57;;;30.40;99.00;;;;;;5034741;28;20219;-78
2023/06/24 09:13:57;;;;;;;6.30;5.80;;;30.70;97.70;;;;;;5035157;28;20709;-79
2023/06/24 09:16:27;;;;;;;7.20;6.60;;;31.00;97.20;;;;;;5034121;28;20226;-79
2023/06/24 09:18:57;;;;;;;7.10;6.50;;;31.00;97.00;;;;;;5033488;28;20736;-80
2023/06/24 09:21:39;;;;;;;7.90;7.03;;;30.80;95.30;;;;;;5016271;28;20762;-82
2023/06/24 09:24:07;;;;;;;6.67;6.17;;;30.20;97.00;;;;;;5028911;28;20200;-78
2023/06/24 09:26:33;;;;;;;6.70;6.20;;;29.90;94.50;;;;;;5026085;28;20232;-78
2023/06/24 09:29:01;;;;;;;6.60;6.00;;;30.00;97.10;;;;;;5019737;28;20613;-78
2023/06/24 09:31:28;;;;;;;6.43;5.80;;;29.80;94.80;;;;;;5017823;28;20228;-79
2023/06/24 09:33:58;;;;;;;7.20;6.67;;;29.90;94.20;;;;;;5029401;28;20692;-78
2023/06/24 09:36:25;;;;;;;6.93;6.40;;;29.80;95.60;;;;;;5023686;28;20193;-78
2023/06/24 09:38:52;;;;;;;6.83;6.33;;;29.80;95.20;;;;;;5023111;28;20192;-77
2023/06/24 09:41:19;;;;;;;6.97;6.47;;;29.60;94.70;;;;;;5018173;28;20311;-80
2023/06/24 09:43:46;;;;;;;7.27;6.77;;;29.60;96.00;;;;;;5019825;28;20632;-77
2023/06/24 09:46:15;;;;;;;6.93;6.43;;;29.80;95.30;;;;;;5020732;28;20192;-78
2023/06/24 09:48:43;;;;;;;6.70;6.20;;;30.10;94.60;;;;;;5025442;28;20189;-78
2023/06/24 09:51:12;;;;;;;6.80;6.30;;;30.20;94.70;;;;;;5028582;28;20216;-78
2023/06/24 09:53:39;;;;;;;6.50;5.90;;;30.50;96.00;;;;;;5031107;28;20196;-79
2023/06/24 09:56:07;;;;;;;5.70;5.20;;;30.80;94.50;;;;;;5022292;28;20212;-79
2023/06/24 09:58:37;;;;;;;5.80;5.23;;;30.60;94.70;;;;;;5022847;28;20197;-79
2023/06/24 10:01:05;;;;;;;5.83;5.33;;;30.50;94.30;;;;;;5025243;28;20215;-79
2023/06/24 10:03:35;;;;;;;6.60;6.00;;;30.60;94.70;;;;;;5022538;28;20262;-79
2023/06/24 10:06:03;;;;;;;7.20;6.60;;;30.60;93.10;;;;;;5028276;28;20681;-79
2023/06/24 10:08:32;;;;;;;5.40;5.00;;;31.00;94.00;;;;;;5018429;28;20232;-77
2023/06/24 10:10:59;;;;;;;7.00;6.50;;;30.90;91.80;;;;;;5020041;28;20227;-78
2023/06/24 10:13:27;;;;;;;6.53;5.97;;;30.70;91.90;;;;;;5022924;28;20224;-78
2023/06/24 10:15:55;;;;;;;5.97;5.47;;;30.20;92.90;;;;;;5017819;28;20220;-78
2023/06/24 10:18:44;;;;;;;6.93;6.40;;;30.00;92.10;;;;;;5020489;28;20201;-77
2023/06/24 10:21:12;;;;;;;4.87;4.43;;;29.30;91.60;;;;;;5019555;28;20267;-78
2023/06/24 10:23:42;;;;;;;3.77;3.40;;;29.30;93.60;;;;;;5021159;28;20209;-79
2023/06/24 10:26:11;;;;;;;4.20;3.80;;;29.70;91.70;;;;;;5021458;28;20241;-79
2023/06/24 10:29:14;;;;;;;5.57;5.17;;;29.30;92.30;;;;;;5018729;28;20748;-78
2023/06/24 10:31:54;;;;;;;4.73;4.33;;;29.10;92.00;;;;;;4942552;28;20297;-78
2023/06/24 10:34:39;;;;;;;5.87;5.37;;;28.90;93.10;;;;;;4970492;28;20229;-78
2023/06/24 10:37:10;;;;;;;3.40;3.10;;;29.30;93.20;;;;;;4991576;28;20565;-77
2023/06/24 10:39:45;;;;;;;4.23;3.60;;;29.10;92.30;;;;;;5019973;28;20629;-78
2023/06/24 10:42:43;;;;;;;3.73;3.37;;;29.00;90.90;;;;;;5028747;28;20223;-78
2023/06/24 10:45:20;;;;;;;4.23;3.70;;;28.40;92.60;;;;;;5034297;28;20303;-78
2023/06/24 10:47:48;;;;;;;5.03;3.20;;;28.40;92.00;;;;;;5033919;28;20226;-78
2023/06/24 10:50:19;;;;;;;3.83;3.43;;;28.50;91.30;;;;;;5035181;28;20663;-77
2023/06/24 10:52:47;;;;;;;5.30;2.97;;;28.30;91.00;;;;;;5029728;28;20219;-77
2023/06/24 10:55:16;;;;;;;3.67;3.30;;;28.50;93.10;;;;;;5030899;28;20212;-78
2023/06/24 10:57:43;;;;;;;6.40;5.77;;;28.70;92.90;;;;;;5019453;28;20196;-77
2023/06/24 11:00:11;;;;;;;6.30;5.80;;;28.80;91.60;;;;;;5018891;28;20580;-77
2023/06/24 11:02:38;;;;;;;5.83;5.33;;;28.70;92.70;;;;;;5015405;28;20645;-77
2023/06/24 11:05:06;;;;;;;4.70;4.30;;;28.80;92.40;;;;;;5027344;28;20188;-77
2023/06/24 11:07:36;;;;;;;4.90;4.43;;;28.80;92.80;;;;;;5022836;28;20204;-77
2023/06/24 11:10:05;;;;;;;3.53;3.23;;;28.80;92.80;;;;;;5023602;28;20258;-77
2023/06/24 11:12:33;;;;;;;5.83;5.37;;;28.40;87.90;;;;;;5021913;28;20719;-79
2023/06/24 11:15:01;;;;;;;6.40;5.90;;;28.40;88.60;;;;;;5019445;28;20236;-77
2023/06/24 11:17:29;;;;;;;6.03;5.53;;;28.60;90.40;;;;;;5020652;28;20212;-77
2023/06/24 11:19:56;;;;;;;5.80;5.30;;;28.60;90.00;;;;;;5022932;28;20588;-77
2023/06/24 11:22:26;;;;;;;6.23;5.73;;;28.60;89.40;;;;;;5022244;28;20239;-77
2023/06/24 11:24:55;;;;;;;6.23;5.73;;;28.40;90.00;;;;;;5020726;28;20228;-78
2023/06/24 11:27:26;;;;;;;5.80;5.40;;;28.40;90.70;;;;;;5018352;28;20196;-77
2023/06/24 11:29:54;;;;;;;3.37;3.07;;;28.20;90.40;;;;;;5020505;28;20254;-79
2023/06/24 11:32:20;;;;;;;5.23;4.67;;;28.30;91.40;;;;;;5022591;28;20267;-77
2023/06/24 11:34:48;;;;;;;5.93;5.37;;;28.00;91.00;;;;;;5028602;28;20224;-77
2023/06/24 11:37:16;;;;;;;3.07;2.83;;;28.00;91.10;;;;;;5019474;28;20254;-77
2023/06/24 11:39:43;;;;;;;3.63;3.30;;;28.00;90.50;;;;;;5019210;28;20196;-77
2023/06/24 11:42:12;;;;;;;5.93;5.43;;;28.40;91.60;;;;;;5018559;28;20207;-77
2023/06/24 11:44:43;;;;;;;6.30;5.80;;;28.60;91.60;;;;;;5015544;28;20205;-77
2023/06/24 11:47:11;;;;;;;6.20;5.67;;;28.60;90.30;;;;;;5018610;28;20228;-78
2023/06/24 11:49:51;;;;;;;5.90;5.43;;;28.30;87.20;;;;;;5020485;28;20606;-78
2023/06/24 11:52:19;;;;;;;3.97;3.67;;;27.80;87.90;;;;;;5024545;28;20220;-77
2023/06/24 11:54:51;;;;;;;4.07;3.77;;;27.30;88.20;;;;;;5022165;28;20201;-81
2023/06/24 11:57:19;;;;;;;5.40;5.00;;;27.30;87.50;;;;;;5015196;28;20204;-79
2023/06/24 11:59:45;;;;;;;3.57;3.27;;;27.30;89.20;;;;;;5019363;28;20239;-79
2023/06/24 12:02:15;;;;;;;4.57;4.17;;;27.30;89.70;;;;;;5020613;28;20219;-79
2023/06/24 12:04:45;;;;;;;3.47;3.17;;;27.20;89.30;;;;;;5027950;28;20191;-78
2023/06/24 12:07:12;;;;;;;4.90;3.50;;;27.30;88.40;;;;;;5020413;28;20251;-77
2023/06/24 12:09:39;;;;;;;5.63;5.23;;;27.30;90.40;;;;;;5046277;28;20268;-77
2023/06/24 12:12:07;;;;;;;5.50;5.00;;;27.60;91.10;;;;;;5017951;28;20322;-79
2023/06/24 12:14:35;;;;;;;5.13;4.73;;;27.90;90.80;;;;;;5018793;28;20200;-80
2023/06/24 12:17:02;;;;;;;5.73;5.23;;;28.00;88.80;;;;;;5026234;28;20254;-79
2023/06/24 12:19:29;;;;;;;5.10;4.70;;;27.70;90.60;;;;;;5024205;28;20206;-78
2023/06/24 12:21:56;;;;;;;4.63;4.20;;;27.50;90.00;;;;;;5022260;28;20240;-77
2023/06/24 12:24:23;;;;;;;4.63;4.23;;;27.30;90.40;;;;;;5020032;28;20717;-78
2023/06/24 12:26:51;;;;;;;5.53;5.10;;;27.20;91.20;;;;;;5032250;28;20200;-77
2023/06/24 12:29:18;;;;;;;6.57;5.77;;;27.20;91.80;;;;;;5021762;28;20205;-77
2023/06/24 12:31:46;;;;;;;4.20;3.90;;;26.80;89.90;;;;;;5018278;28;20224;-77
2023/06/24 12:34:12;;;;;;;6.07;5.57;;;26.70;90.90;;;;;;5020283;28;20621;-77
2023/06/24 12:36:39;;;;;;;4.13;3.67;;;26.80;91.40;;;;;;5017379;28;20232;-78
2023/06/24 12:39:06;;;;;;;3.97;3.40;;;26.90;91.10;;;;;;5024472;28;20674;-78
2023/06/24 12:41:33;;;;;;;4.23;3.20;;;26.90;91.40;;;;;;5026741;28;20230;-77
2023/06/24 12:44:01;;;;;;;3.00;2.70;;;27.00;90.60;;;;;;5022073;28;20196;-77
2023/06/24 12:46:27;;;;;;;3.67;3.13;;;27.10;92.10;;;;;;5020685;28;20956;-77
2023/06/24 12:48:56;;;;;;;3.63;3.30;;;27.20;90.90;;;;;;5021567;28;20205;-79
2023/06/24 12:51:23;;;;;;;6.40;5.80;;;27.00;90.90;;;;;;5030101;28;20220;-78
2023/06/24 12:53:50;;;;;;;4.63;4.20;;;26.80;90.90;;;;;;5026864;28;20227;-77
2023/06/24 12:56:16;;;;;;;4.10;3.40;;;26.60;89.90;;;;;;5029442;28;20239;-79
2023/06/24 12:58:43;;;;;;;3.17;2.87;;;26.50;90.70;;;;;;5026228;28;20208;-77
2023/06/24 13:01:10;;;;;;;5.93;5.40;;;26.70;92.20;;;;;;5021191;28;20655;-78
2023/06/24 13:03:37;;;;;;;5.70;5.30;;;26.60;90.10;;;;;;5021502;28;20223;-79
2023/06/24 13:06:05;;;;;;;5.80;5.30;;;26.70;91.20;;;;;;5028597;28;20192;-77